createdAt,value
2023-04-18T00:02:23.135Z,8.63
2023-04-18T00:04:51.421Z,10.88
2023-04-18T00:07:19.265Z,10.10
2023-04-18T00:09:46.966Z,11.02
2023-04-18T00:12:15.415Z,9.80
2023-04-18T00:14:43.749Z,8.82
2023-04-18T00:17:13.487Z,8.32
2023-04-18T00:19:43.361Z,10.25
2023-04-18T00:22:11.582Z,9.48
2023-04-18T00:24:48.143Z,9.37
2023-04-18T00:27:16.265Z,10.90
2023-04-18T00:29:43.974Z,10.95
2023-04-18T00:32:11.731Z,9.88
2023-04-18T00:34:40.489Z,10.93
2023-04-18T00:37:09.942Z,10.32
2023-04-18T00:39:37.690Z,10.02
2023-04-18T00:42:05.544Z,9.53
2023-04-18T00:44:33.474Z,11.02
2023-04-18T00:47:01.392Z,11.20
2023-04-18T00:49:29.291Z,9.95
2023-04-18T00:51:57.190Z,10.57
2023-04-18T00:54:27.394Z,11.35
2023-04-18T00:56:55.185Z,7.80
2023-04-18T00:59:23.146Z,10.70
2023-04-18T01:01:51.209Z,10.20
2023-04-18T01:04:19.387Z,11.27
2023-04-18T01:06:47.308Z,12.75
2023-04-18T01:09:15.994Z,7.70
2023-04-18T01:11:45.086Z,10.80
2023-04-18T01:14:12.978Z,9.35
2023-04-18T01:16:40.876Z,12.88
2023-04-18T01:19:23.246Z,9.00
2023-04-18T01:21:53.544Z,9.75
2023-04-18T01:24:24.795Z,7.38
2023-04-18T01:26:52.480Z,10.90
2023-04-18T01:29:20.228Z,8.63
2023-04-18T01:31:49.455Z,10.25
2023-04-18T01:34:17.871Z,14.30
2023-04-18T01:36:46.730Z,12.15
2023-04-18T01:39:14.723Z,10.77
2023-04-18T01:41:43.948Z,9.32
2023-04-18T01:44:11.985Z,9.93
2023-04-18T01:49:48.152Z,10.03
2023-04-18T01:52:16.171Z,8.80
2023-04-18T01:54:44.097Z,10.15
2023-04-18T01:57:13.309Z,9.30
2023-04-18T01:59:41.018Z,9.37
2023-04-18T02:02:09.031Z,11.02
2023-04-18T02:04:36.971Z,11.82
2023-04-18T02:07:04.742Z,9.10
2023-04-18T02:09:32.410Z,9.15
2023-04-18T02:12:02.685Z,8.80
2023-04-18T02:14:34.173Z,8.93
2023-04-18T02:17:01.942Z,10.40
2023-04-18T02:19:30.967Z,10.50
2023-04-18T02:21:58.737Z,11.73
2023-04-18T02:24:26.624Z,13.43
2023-04-18T02:26:54.346Z,6.88
2023-04-18T02:29:22.039Z,8.00
2023-04-18T02:31:51.207Z,8.63
2023-04-18T02:34:28.029Z,8.95
2023-04-18T02:36:55.767Z,8.93
2023-04-18T02:39:23.495Z,9.63
2023-04-18T02:41:51.350Z,7.97
2023-04-18T02:44:19.092Z,9.43
2023-04-18T02:46:46.808Z,9.18
2023-04-18T02:49:16.146Z,8.57
2023-04-18T02:51:43.849Z,8.57
2023-04-18T02:54:11.838Z,9.35
2023-04-18T02:56:40.289Z,10.00
2023-04-18T02:59:08.340Z,10.77
2023-04-18T03:01:36.075Z,7.00
2023-04-18T03:04:03.891Z,7.97
2023-04-18T03:06:33.088Z,9.68
2023-04-18T03:09:00.963Z,7.82
2023-04-18T03:11:28.680Z,9.67
2023-04-18T03:13:56.684Z,12.15
2023-04-18T03:16:24.550Z,8.95
2023-04-18T03:18:52.274Z,7.70
2023-04-18T03:21:19.981Z,7.45
2023-04-18T03:23:49.439Z,7.47
2023-04-18T03:26:17.272Z,8.32
2023-04-18T03:28:44.962Z,9.00
2023-04-18T03:31:12.684Z,8.00
2023-04-18T03:33:42.316Z,9.43
2023-04-18T03:36:10.240Z,10.38
2023-04-18T03:38:40.688Z,8.95
2023-04-18T03:41:09.823Z,9.02
2023-04-18T03:43:37.539Z,7.88
2023-04-18T03:46:05.595Z,10.40
2023-04-18T03:48:35.883Z,8.27
2023-04-18T03:51:03.812Z,10.40
2023-04-18T03:54:12.019Z,8.90
2023-04-18T03:56:41.525Z,10.27
2023-04-18T03:59:09.261Z,11.70
2023-04-18T04:01:37.322Z,9.70
2023-04-18T04:04:05.564Z,9.43
2023-04-18T04:06:33.468Z,10.88
2023-04-18T04:09:01.282Z,10.75
2023-04-18T04:11:29.289Z,10.90
2023-04-18T04:13:58.431Z,10.95
2023-04-18T04:16:26.220Z,9.18
2023-04-18T04:18:54.181Z,9.77
2023-04-18T04:21:24.632Z,10.30
2023-04-18T04:23:52.455Z,9.45
2023-04-18T04:26:23.170Z,10.63
2023-04-18T04:28:51.666Z,11.20
2023-04-18T04:31:22.237Z,10.65
2023-04-18T04:33:50.266Z,12.68
2023-04-18T04:36:19.554Z,10.30
2023-04-18T04:38:47.388Z,10.68
2023-04-18T04:41:15.294Z,10.63
2023-04-18T04:43:42.980Z,13.10
2023-04-18T04:46:13.667Z,9.25
2023-04-18T04:48:43.284Z,10.35
2023-04-18T04:51:11.079Z,11.00
2023-04-18T04:53:39.018Z,10.15
2023-04-18T04:56:07.194Z,10.10
2023-04-18T04:58:35.012Z,10.15
2023-04-18T05:01:02.958Z,11.02
2023-04-18T05:03:31.276Z,13.20
2023-04-18T05:06:00.964Z,10.05
2023-04-18T05:08:28.897Z,9.95
2023-04-18T05:10:56.801Z,13.13
2023-04-18T05:13:24.528Z,12.33
2023-04-18T05:15:53.072Z,12.48
2023-04-18T05:18:21.310Z,12.53
2023-04-18T05:20:49.353Z,10.13
2023-04-18T05:23:18.517Z,9.65
2023-04-18T05:25:46.557Z,15.50
2023-04-18T05:28:14.256Z,12.05
2023-04-18T05:30:42.187Z,11.50
2023-04-18T05:33:25.250Z,14.53
2023-04-18T05:35:53.252Z,11.97
2023-04-18T05:38:22.438Z,13.00
2023-04-18T05:40:51.214Z,12.98
2023-04-18T05:43:20.329Z,10.05
2023-04-18T05:45:48.274Z,12.32
2023-04-18T05:48:16.114Z,12.52
2023-04-18T05:51:02.330Z,13.68
2023-04-18T05:53:31.450Z,14.82
2023-04-18T05:55:59.897Z,12.80
2023-04-18T05:58:31.008Z,13.03
2023-04-18T06:00:58.964Z,13.20
2023-04-18T06:03:26.883Z,14.50
2023-04-18T06:05:55.123Z,12.30
2023-04-18T06:08:22.948Z,12.30
2023-04-18T06:10:52.120Z,15.57
2023-04-18T06:13:26.238Z,12.27
2023-04-18T06:15:54.034Z,11.68
2023-04-18T06:18:21.785Z,13.27
2023-04-18T06:20:49.569Z,11.30
2023-04-18T06:23:17.298Z,12.73
2023-04-18T06:25:45.317Z,12.98
2023-04-18T06:28:14.446Z,12.52
2023-04-18T06:30:42.150Z,11.80
2023-04-18T06:33:11.136Z,12.05
2023-04-18T06:35:38.978Z,11.68
2023-04-18T06:38:06.793Z,12.27
2023-04-18T06:40:34.546Z,11.85
2023-04-18T06:43:02.710Z,12.38
2023-04-18T06:45:32.686Z,11.95
2023-04-18T06:48:00.733Z,13.82
2023-04-18T06:50:28.468Z,13.40
2023-04-18T06:52:56.307Z,14.13
2023-04-18T06:55:24.112Z,15.88
2023-04-18T06:57:51.855Z,14.00
2023-04-18T07:00:20.039Z,13.27
2023-04-18T07:02:49.796Z,13.60
2023-04-18T07:05:17.727Z,12.60
2023-04-18T07:07:45.460Z,13.90
2023-04-18T07:10:13.677Z,15.20
2023-04-18T07:12:41.391Z,14.68
2023-04-18T07:15:10.929Z,12.43
2023-04-18T07:17:38.763Z,14.45
2023-04-18T07:20:09.593Z,13.07
2023-04-18T07:22:37.309Z,12.75
2023-04-18T07:25:05.764Z,13.87
2023-04-18T07:27:35.490Z,12.00
2023-04-18T07:30:03.384Z,12.55
2023-04-18T07:32:31.653Z,14.52
2023-04-18T07:34:59.500Z,15.10
2023-04-18T07:37:28.769Z,11.82
2023-04-18T07:39:56.531Z,14.13
2023-04-18T07:42:24.356Z,12.95
2023-04-18T07:44:52.736Z,30.17
2023-04-18T07:47:22.296Z,16.52
2023-04-18T07:49:50.293Z,11.52
2023-04-18T07:52:18.079Z,13.68
2023-04-18T07:55:02.669Z,13.57
2023-04-18T07:57:30.397Z,14.65
2023-04-18T07:59:58.124Z,13.50
2023-04-18T08:02:26.012Z,15.98
2023-04-18T08:04:56.459Z,15.85
2023-04-18T08:07:24.659Z,15.43
2023-04-18T08:09:52.777Z,15.85
2023-04-18T08:12:22.031Z,15.02
2023-04-18T08:14:49.869Z,17.55
2023-04-18T08:17:18.173Z,15.57
2023-04-18T08:19:46.250Z,15.80
2023-04-18T08:22:14.082Z,15.98
2023-04-18T08:25:05.518Z,16.75
2023-04-18T08:27:34.986Z,17.30
2023-04-18T08:30:04.209Z,17.30
2023-04-18T08:32:32.392Z,18.55
2023-04-18T08:35:00.914Z,18.63
2023-04-18T08:37:29.146Z,22.25
2023-04-18T08:39:56.964Z,17.77
2023-04-18T08:42:24.826Z,20.20
2023-04-18T08:44:54.211Z,18.97
2023-04-18T08:47:21.933Z,18.27
2023-04-18T08:49:49.716Z,19.17
2023-04-18T08:52:18.257Z,21.45
2023-04-18T08:54:55.069Z,15.80
2023-04-18T08:57:26.987Z,18.50
2023-04-18T08:59:56.661Z,14.83
2023-04-18T09:02:38.999Z,16.20
2023-04-18T09:05:12.657Z,14.35
2023-04-18T09:07:40.663Z,14.65
2023-04-18T09:10:09.923Z,16.40
2023-04-18T09:12:50.336Z,19.38
2023-04-18T09:15:24.404Z,15.95
2023-04-18T09:17:55.025Z,17.10
2023-04-18T09:20:30.416Z,17.27
2023-04-18T09:23:00.735Z,15.50
2023-04-18T09:25:30.270Z,17.92
2023-04-18T09:28:01.040Z,19.15
2023-04-18T09:30:36.944Z,18.02
2023-04-18T09:33:07.600Z,15.50
2023-04-18T09:35:35.923Z,15.77
2023-04-18T09:38:04.055Z,20.23
2023-04-18T09:40:32.213Z,18.45
2023-04-18T09:43:00.122Z,18.15
2023-04-18T09:45:28.166Z,17.85
2023-04-18T09:47:57.369Z,15.68
2023-04-18T09:50:25.098Z,15.32
2023-04-18T09:52:53.278Z,18.00
2023-04-18T09:55:21.093Z,15.03
2023-04-18T09:57:49.628Z,16.33
2023-04-18T10:00:23.519Z,16.65
2023-04-18T10:02:53.692Z,16.33
2023-04-18T10:05:26.167Z,17.80
2023-04-18T10:07:55.316Z,16.70
2023-04-18T10:10:23.346Z,17.13
2023-04-18T10:12:52.676Z,18.70
2023-04-18T10:15:22.363Z,17.58
2023-04-18T10:18:03.485Z,19.65
2023-04-18T10:20:36.068Z,18.47
2023-04-18T10:23:37.846Z,17.83
2023-04-18T10:26:06.381Z,21.23
2023-04-18T10:28:54.676Z,20.10
2023-04-18T10:31:23.988Z,21.13
2023-04-18T10:34:03.950Z,19.40
2023-04-18T10:36:34.509Z,19.00
2023-04-18T10:39:23.957Z,19.48
2023-04-18T10:41:52.530Z,18.75
2023-04-18T10:44:22.661Z,18.48
2023-04-18T10:47:19.915Z,18.45
2023-04-18T10:49:58.990Z,19.83
2023-04-18T10:52:28.574Z,20.50
2023-04-18T10:55:03.091Z,19.83
2023-04-18T10:57:39.531Z,20.73
2023-04-18T11:00:11.763Z,20.30
2023-04-18T11:02:40.256Z,24.70
2023-04-18T11:11:23.718Z,23.25
2023-04-18T11:13:56.896Z,26.00
2023-04-18T11:16:28.847Z,21.73
2023-04-18T11:18:56.957Z,22.40
2023-04-18T11:21:29.135Z,19.83
2023-04-18T11:23:58.571Z,19.40
2023-04-18T11:26:28.987Z,20.40
2023-04-18T11:28:58.420Z,17.73
2023-04-18T11:31:26.416Z,19.98
2023-04-18T11:33:57.351Z,17.98
2023-04-18T11:36:25.166Z,20.23
2023-04-18T11:38:52.997Z,17.63
2023-04-18T11:41:21.339Z,16.23
2023-04-18T11:43:50.432Z,15.82
2023-04-18T11:46:18.183Z,17.50
2023-04-18T11:48:46.692Z,16.67
2023-04-18T11:51:34.220Z,17.83
2023-04-18T11:54:02.088Z,17.00
2023-04-18T11:56:30.050Z,17.95
2023-04-18T11:58:59.510Z,18.88
2023-04-18T12:04:52.109Z,18.02
2023-04-18T12:07:34.335Z,14.25
2023-04-18T12:10:02.421Z,15.80
2023-04-18T12:12:30.228Z,18.00
2023-04-18T12:15:04.638Z,16.55
2023-04-18T12:17:32.499Z,17.27
2023-04-18T12:20:04.822Z,18.45
2023-04-18T12:22:40.377Z,17.10
2023-04-18T12:25:20.127Z,18.25
2023-04-18T12:27:50.437Z,17.10
2023-04-18T12:30:22.095Z,16.13
2023-04-18T12:35:54.066Z,14.73
2023-04-18T12:38:23.367Z,16.50
2023-04-18T12:40:51.788Z,16.45
2023-04-18T12:43:19.610Z,19.00
2023-04-18T12:45:48.746Z,14.35
2023-04-18T12:48:16.424Z,18.05
2023-04-18T12:50:44.122Z,17.20
2023-04-18T12:53:27.086Z,16.65
2023-04-18T12:55:54.747Z,17.10
2023-04-18T12:58:22.517Z,15.63
2023-04-18T13:00:51.692Z,15.27
2023-04-18T13:03:19.671Z,14.30
2023-04-18T13:05:47.474Z,17.30
2023-04-18T13:08:17.547Z,12.60
2023-04-18T13:10:46.172Z,13.50
2023-04-18T13:13:14.007Z,17.30
2023-04-18T13:15:41.679Z,13.18
2023-04-18T13:18:11.093Z,14.03
2023-04-18T13:20:38.826Z,15.02
2023-04-18T13:23:06.486Z,15.68
2023-04-18T13:25:34.161Z,13.10
2023-04-18T13:28:01.948Z,15.48
2023-04-18T13:30:29.858Z,12.50
2023-04-18T13:32:58.099Z,13.07
2023-04-18T13:35:27.236Z,14.38
2023-04-18T13:37:54.972Z,13.38
2023-04-18T13:40:22.701Z,12.27
2023-04-18T13:42:50.425Z,14.00
2023-04-18T13:45:18.233Z,13.85
2023-04-18T13:47:45.928Z,12.23
2023-04-18T13:50:13.630Z,10.25
2023-04-18T13:52:42.693Z,8.88
2023-04-18T13:55:12.487Z,10.80
2023-04-18T13:57:41.276Z,11.95
2023-04-18T14:00:12.794Z,11.82
2023-04-18T14:02:40.638Z,10.07
2023-04-18T14:05:09.445Z,10.63
2023-04-18T14:08:04.160Z,8.38
2023-04-18T14:10:32.953Z,11.10
2023-04-18T14:13:00.729Z,8.80
2023-04-18T14:15:28.549Z,7.18
2023-04-18T14:17:56.423Z,9.57
2023-04-18T14:20:25.780Z,7.82
2023-04-18T14:22:53.756Z,10.93
2023-04-18T14:25:23.543Z,7.68
2023-04-18T14:28:05.363Z,8.70
2023-04-18T14:30:33.461Z,7.73
2023-04-18T14:33:01.213Z,10.77
2023-04-18T14:35:28.959Z,9.17
2023-04-18T14:37:56.688Z,8.00
2023-04-18T14:40:25.977Z,9.30
2023-04-18T14:42:54.253Z,7.95
2023-04-18T14:45:28.084Z,8.60
2023-04-18T14:47:56.015Z,5.53
2023-04-18T14:50:23.969Z,7.75
2023-04-18T14:52:52.221Z,7.13
2023-04-18T14:55:20.457Z,5.55
2023-04-18T14:57:49.648Z,6.47
2023-04-18T15:00:17.895Z,7.20
2023-04-18T15:02:45.853Z,6.25
2023-04-18T15:05:14.206Z,6.28
2023-04-18T15:07:43.519Z,5.82
2023-04-18T15:10:13.235Z,7.67
2023-04-18T15:12:43.475Z,5.85
2023-04-18T15:15:12.823Z,7.00
2023-04-18T15:17:40.563Z,6.57
2023-04-18T15:20:09.465Z,7.13
2023-04-18T15:22:37.268Z,5.97
2023-04-18T15:25:06.484Z,7.22
2023-04-18T15:27:34.431Z,7.50
2023-04-18T15:30:02.383Z,6.70
2023-04-18T15:32:31.487Z,7.67
2023-04-18T15:34:59.204Z,7.10
2023-04-18T15:37:27.332Z,14.50
2023-04-18T15:39:55.013Z,8.55
2023-04-18T15:42:23.334Z,7.32
2023-04-18T15:44:51.031Z,7.55
2023-04-18T15:47:18.911Z,6.63
2023-04-18T15:49:51.009Z,6.35
2023-04-18T15:52:18.791Z,5.78
2023-04-18T15:54:46.561Z,6.85
2023-04-18T15:57:14.880Z,5.53
2023-04-18T15:59:42.548Z,8.07
2023-04-18T16:02:11.087Z,6.10
2023-04-18T16:04:39.180Z,9.88
2023-04-18T16:07:08.991Z,6.57
2023-04-18T16:09:36.920Z,5.78
2023-04-18T16:12:07.166Z,5.57
2023-04-18T16:14:34.940Z,6.60
2023-04-18T16:17:03.095Z,8.68
2023-04-18T16:19:30.856Z,8.27
2023-04-18T16:21:58.805Z,6.53
2023-04-18T16:24:30.199Z,5.90
2023-04-18T16:26:58.825Z,6.57
2023-04-18T16:29:26.848Z,7.03
2023-04-18T16:31:54.621Z,8.05
2023-04-18T16:34:22.355Z,7.85
2023-04-18T16:36:51.142Z,6.15
2023-04-18T16:39:19.280Z,8.38
2023-04-18T16:41:48.485Z,6.18
2023-04-18T16:44:16.367Z,6.30
2023-04-18T16:46:44.411Z,7.63
2023-04-18T16:49:19.124Z,8.68
2023-04-18T16:51:46.813Z,6.73
2023-04-18T16:54:14.875Z,6.82
2023-04-18T16:56:44.612Z,7.15
2023-04-18T16:59:13.847Z,13.93
2023-04-18T17:01:41.731Z,10.23
2023-04-18T17:04:09.606Z,7.60
2023-04-18T17:06:37.310Z,9.02
2023-04-18T17:09:06.482Z,7.93
2023-04-18T17:11:39.624Z,11.20
2023-04-18T17:14:20.317Z,8.95
2023-04-18T17:16:49.596Z,8.90
2023-04-18T17:19:19.072Z,10.15
2023-04-18T17:21:47.106Z,8.68
2023-04-18T17:24:14.860Z,10.98
2023-04-18T17:26:42.898Z,8.93
2023-04-18T17:29:10.598Z,9.48
2023-04-18T17:31:39.892Z,10.93
2023-04-18T17:34:07.757Z,8.65
2023-04-18T17:36:35.435Z,8.63
2023-04-18T17:39:06.288Z,9.15
2023-04-18T17:41:37.411Z,10.50
2023-04-18T17:44:05.629Z,7.65
2023-04-18T17:46:33.764Z,7.97
2023-04-18T17:49:02.978Z,9.57
2023-04-18T17:51:31.010Z,10.93
2023-04-18T17:53:58.856Z,12.55
2023-04-18T17:56:26.925Z,9.52
2023-04-18T17:58:56.589Z,10.27
2023-04-18T18:01:24.921Z,10.02
2023-04-18T18:03:54.235Z,10.20
2023-04-18T18:06:23.874Z,11.35
2023-04-18T18:08:51.570Z,12.30
2023-04-18T18:11:19.333Z,11.30
2023-04-18T18:13:47.217Z,11.13
2023-04-18T18:16:14.954Z,12.45
2023-04-18T18:18:43.196Z,10.83
2023-04-18T18:21:11.543Z,15.90
2023-04-18T18:23:40.779Z,13.90
2023-04-18T18:26:09.958Z,12.27
2023-04-18T18:28:37.986Z,12.40
2023-04-18T18:31:05.969Z,14.18
2023-04-18T18:33:33.772Z,13.68
2023-04-18T18:36:01.852Z,14.75
2023-04-18T18:38:29.628Z,13.50
2023-04-18T18:40:59.102Z,13.65
2023-04-18T18:43:27.909Z,13.93
2023-04-18T18:45:55.753Z,15.85
2023-04-18T18:48:24.603Z,16.13
2023-04-18T18:50:52.501Z,14.18
2023-04-18T18:53:20.254Z,14.38
2023-04-18T18:55:47.942Z,17.80
2023-04-18T18:58:17.019Z,14.75
2023-04-18T19:00:44.717Z,15.93
2023-04-18T19:03:12.769Z,15.57
2023-04-18T19:05:42.135Z,16.25
2023-04-18T19:08:09.811Z,18.23
2023-04-18T19:10:37.854Z,14.98
2023-04-18T19:13:05.718Z,16.95
2023-04-18T19:15:34.859Z,18.07
2023-04-18T19:18:02.586Z,16.70
2023-04-18T19:20:30.603Z,19.05
2023-04-18T19:22:58.314Z,17.60
2023-04-18T19:25:26.274Z,18.05
2023-04-18T19:27:54.248Z,16.70
2023-04-18T19:30:22.158Z,14.95
2023-04-18T19:32:51.295Z,18.60
2023-04-18T19:35:19.015Z,16.63
2023-04-18T19:37:46.803Z,16.92
2023-04-18T19:40:15.203Z,18.13
2023-04-18T19:42:42.881Z,18.88
2023-04-18T19:45:13.710Z,17.38
2023-04-18T19:47:44.032Z,17.58
2023-04-18T19:50:35.962Z,18.92
2023-04-18T19:53:03.662Z,17.60
2023-04-18T19:55:31.599Z,19.60
2023-04-18T19:58:00.417Z,15.93
2023-04-18T20:00:29.385Z,18.27
2023-04-18T20:02:58.702Z,25.30
2023-04-18T20:05:28.364Z,18.65
2023-04-18T20:07:56.667Z,22.07
2023-04-18T20:10:24.602Z,20.80
2023-04-18T20:12:52.275Z,18.02
2023-04-18T20:15:20.191Z,20.27
2023-04-18T20:17:47.870Z,18.25
2023-04-18T20:20:15.794Z,22.33
2023-04-18T20:22:46.942Z,19.13
2023-04-18T20:25:14.627Z,17.67
2023-04-18T20:27:42.306Z,20.05
2023-04-18T20:30:10.725Z,20.43
2023-04-18T20:32:38.421Z,17.85
2023-04-18T20:35:07.374Z,19.60
2023-04-18T20:37:36.764Z,22.05
2023-04-18T20:40:11.088Z,21.77
2023-04-18T20:42:39.001Z,22.42
2023-04-18T20:45:10.859Z,22.67
2023-04-18T20:47:38.764Z,23.10
2023-04-18T20:50:07.748Z,28.17
2023-04-18T20:52:35.425Z,23.80
2023-04-18T20:55:03.163Z,22.02
2023-04-18T20:57:32.238Z,19.85
2023-04-18T20:59:59.955Z,24.35
2023-04-18T21:02:28.036Z,22.23
2023-04-18T21:04:55.811Z,22.75
2023-04-18T21:07:23.484Z,21.80
2023-04-18T21:09:51.174Z,22.95
2023-04-18T21:12:18.909Z,19.02
2023-04-18T21:14:48.432Z,21.77
2023-04-18T21:17:17.453Z,21.25
2023-04-18T21:19:46.147Z,18.98
2023-04-18T21:22:14.830Z,19.45
2023-04-18T21:24:42.608Z,19.67
2023-04-18T21:27:10.680Z,18.23
2023-04-18T21:29:38.387Z,19.67
2023-04-18T21:32:07.616Z,19.67
2023-04-18T21:34:35.349Z,20.45
2023-04-18T21:37:03.093Z,18.40
2023-04-18T21:39:30.912Z,22.05
2023-04-18T21:41:58.603Z,21.60
2023-04-18T21:44:26.526Z,19.25
2023-04-18T21:46:54.187Z,18.65
2023-04-18T21:49:23.259Z,18.70
2023-04-18T21:51:51.010Z,21.08
2023-04-18T21:54:18.768Z,20.63
2023-04-18T21:56:46.448Z,19.58
2023-04-18T21:59:14.099Z,19.37
2023-04-18T22:01:41.819Z,19.02
2023-04-18T22:04:09.710Z,21.87
2023-04-18T22:06:38.953Z,19.38
2023-04-18T22:09:07.335Z,17.65
2023-04-18T22:11:35.055Z,18.77
2023-04-18T22:14:02.728Z,17.35
2023-04-18T22:16:30.732Z,14.98
2023-04-18T22:18:58.403Z,17.23
2023-04-18T22:21:26.515Z,19.70
2023-04-18T22:23:55.593Z,15.77
2023-04-18T22:26:23.546Z,21.35
2023-04-18T22:28:51.226Z,15.93
2023-04-18T22:31:19.006Z,16.65
2023-04-18T22:33:47.673Z,16.80
2023-04-18T22:36:15.519Z,18.98
2023-04-18T22:38:43.189Z,18.15
2023-04-18T22:41:13.044Z,19.83
2023-04-18T22:43:40.737Z,17.57
2023-04-18T22:46:08.410Z,21.88
2023-04-18T22:48:36.245Z,21.13
2023-04-18T22:51:03.993Z,19.40
2023-04-18T22:53:31.716Z,19.83
2023-04-18T22:55:59.382Z,20.58
2023-04-18T22:58:28.610Z,17.02
2023-04-18T23:00:56.379Z,16.48
2023-04-18T23:03:24.204Z,17.17
2023-04-18T23:05:52.773Z,14.63
2023-04-18T23:08:22.607Z,16.55
2023-04-18T23:10:50.438Z,17.23
2023-04-18T23:13:18.159Z,16.90
2023-04-18T23:15:47.273Z,16.45
2023-04-18T23:18:15.291Z,18.75
2023-04-18T23:20:42.998Z,14.32
2023-04-18T23:23:10.812Z,14.65
2023-04-18T23:25:38.543Z,17.63
2023-04-18T23:28:06.391Z,17.83
2023-04-18T23:30:36.237Z,17.48
2023-04-18T23:33:05.927Z,14.50
2023-04-18T23:35:33.672Z,14.00
2023-04-18T23:38:01.472Z,14.75
2023-04-18T23:40:29.328Z,15.33
2023-04-18T23:42:57.135Z,16.00
2023-04-18T23:45:25.467Z,13.00
2023-04-18T23:47:53.171Z,12.45
2023-04-18T23:50:22.715Z,13.23
2023-04-18T23:52:50.369Z,15.23
2023-04-18T23:55:18.167Z,15.65
2023-04-18T23:57:45.837Z,16.98
